»·PEaware :: DAL1228 KSLC-KBOI

DAL1228 :: KSLC-KBOI

FLIGHT INFORMATION

Flight Status: Arrived
Operator:
Delta Air Lines
More flights by this operator :: More flights under this callsign
Pilot: Anonymous 20536 (20536)
Aircraft: AIRBUS A319
(A319)
More flights by this aircraft type
Origin: KSLC Salt Lake City Intl
United States
Destination: KBOI Boise Air Terminal/Gowen
United States
More flights between these airports :: More routes between these airports
Route: CGULL1 TWF BROPH SPUUD3
File this flight plan on PilotEdge
Remarks:
Altitude:
(Current/Filed)
34,000ft
Speed:
(Current/Filed)
380kts
Departed: 26-Sep-18 11:42 AM
Arrived: 26-Sep-18 12:31 PM
Distance/Time
Traveled:
252nm/0:49
Distance/Time
To Go:
Arrived

Flight Plot

Page will automatically refresh every two minutes.

Flight plan parsing failed; only flown route is shown


Map Options




Map Legend


Flown Route
Filed Route
Departure Airport
Arrival Airport
Navaid (VOR, NDB)
Fix

Horizontal Profiles

Position Reports

Time Latitude Longitude Heading Altitude Ground
Speed
26-Sep-18 11:24 40.788510 -111.980782 283 4236ft 0kts
26-Sep-18 11:25 40.788509 -111.980782 283 4236ft 0kts
26-Sep-18 11:26 40.788509 -111.980782 283 4236ft 0kts
26-Sep-18 11:27 40.788509 -111.980782 283 4236ft 0kts
26-Sep-18 11:28 40.788509 -111.980782 283 4236ft 0kts
26-Sep-18 11:29 40.788509 -111.980782 283 4236ft 0kts
26-Sep-18 11:30 40.788509 -111.980782 283 4236ft 0kts
26-Sep-18 11:31 40.788450 -111.980657 315 4236ft 1kts
26-Sep-18 11:32 40.788054 -111.980302 16 4236ft 0kts
26-Sep-18 11:33 40.787984 -111.980337 20 4236ft 0kts
26-Sep-18 11:34 40.787984 -111.980337 20 4236ft 0kts
26-Sep-18 11:35 40.789539 -111.979573 54 4236ft 12kts
26-Sep-18 11:36 40.789697 -111.978522 85 4236ft 0kts
26-Sep-18 11:37 40.791990 -111.978976 263 4236ft 18kts
26-Sep-18 11:38 40.791527 -111.985764 264 4236ft 18kts
26-Sep-18 11:39 40.791068 -111.992517 265 4236ft 18kts
26-Sep-18 11:40 40.795177 -111.994686 354 4236ft 19kts
26-Sep-18 11:41 40.800563 -111.995308 355 4236ft 19kts
26-Sep-18 11:42 40.805868 -111.995908 355 4236ft 19kts
26-Sep-18 11:43 40.807962 -111.997666 223 4236ft 0kts
26-Sep-18 11:44 40.802898 -111.998743 175 4236ft 94kts
26-Sep-18 11:45 40.757013 -111.993792 175 5935ft 182kts
26-Sep-18 11:46 40.704290 -112.007109 253 7729ft 231kts
26-Sep-18 11:47 40.736922 -112.073631 315 10563ft 237kts
26-Sep-18 11:48 40.784041 -112.134966 314 13355ft 241kts
26-Sep-18 11:49 40.836180 -112.204348 314 14530ft 304kts
26-Sep-18 11:50 40.902841 -112.293576 315 15178ft 379kts
26-Sep-18 11:51 40.980308 -112.397715 315 16943ft 407kts
26-Sep-18 11:52 41.060350 -112.505669 316 19084ft 416kts
26-Sep-18 11:53 41.141658 -112.615369 316 20948ft 425kts
26-Sep-18 11:54 41.224778 -112.728249 316 22556ft 436kts
26-Sep-18 11:55 41.308928 -112.843182 316 24031ft 444kts
26-Sep-18 11:56 41.393956 -112.959660 317 25979ft 437kts
26-Sep-18 11:57 41.477966 -113.075136 317 27753ft 431kts
26-Sep-18 11:58 41.560514 -113.189082 317 29319ft 426kts
26-Sep-18 11:59 41.641974 -113.301890 317 30623ft 423kts
26-Sep-18 12:00 41.722820 -113.414354 317 31781ft 420kts
26-Sep-18 12:01 41.802913 -113.526180 317 32887ft 415kts
26-Sep-18 12:02 41.882161 -113.637277 317 33815ft 411kts
26-Sep-18 12:03 41.959391 -113.746359 317 34339ft 409kts
26-Sep-18 12:04 42.038024 -113.857528 316 34349ft 412kts
26-Sep-18 12:05 42.116208 -113.968316 317 34345ft 412kts
26-Sep-18 12:06 42.194847 -114.079713 316 34351ft 412kts
26-Sep-18 12:07 42.273237 -114.191621 316 33464ft 410kts
26-Sep-18 12:08 42.350833 -114.302905 316 32564ft 407kts
26-Sep-18 12:09 42.428120 -114.414258 316 31593ft 407kts
26-Sep-18 12:10 42.504206 -114.526589 314 30182ft 412kts
26-Sep-18 12:11 42.578250 -114.645594 313 26582ft 421kts
26-Sep-18 12:12 42.652835 -114.765633 312 23052ft 422kts
26-Sep-18 12:13 42.725074 -114.881793 313 21495ft 377kts
26-Sep-18 12:14 42.790889 -114.975903 316 21185ft 316kts
26-Sep-18 12:15 42.849973 -115.060451 316 20294ft 307kts
26-Sep-18 12:16 42.908113 -115.144245 316 19410ft 304kts
26-Sep-18 12:17 42.965442 -115.227357 315 17862ft 300kts
26-Sep-18 12:18 43.022041 -115.309636 315 16169ft 296kts
26-Sep-18 12:19 43.077080 -115.389888 315 14702ft 287kts
26-Sep-18 12:20 43.132100 -115.465399 318 13186ft 279kts
26-Sep-18 12:21 43.187583 -115.536002 317 11820ft 269kts
26-Sep-18 12:22 43.241520 -115.605389 317 10325ft 265kts
26-Sep-18 12:23 43.291984 -115.670707 316 9739ft 228kts
26-Sep-18 12:24 43.337871 -115.730272 316 8909ft 225kts
26-Sep-18 12:25 43.382798 -115.788568 316 7926ft 221kts
26-Sep-18 12:26 43.426973 -115.846015 315 7107ft 218kts
26-Sep-18 12:27 43.460218 -115.915019 296 7003ft 218kts
26-Sep-18 12:28 43.484705 -115.985032 295 6284ft 199kts
26-Sep-18 12:29 43.507914 -116.053507 294 5236ft 195kts
26-Sep-18 12:30 43.528977 -116.115707 294 4271ft 155kts
26-Sep-18 12:31 43.545851 -116.165416 294 3520ft 142kts
26-Sep-18 12:32 43.562336 -116.213748 295 2880ft 113kts
26-Sep-18 12:33 43.566535 -116.223983 16 2880ft 0kts
26-Sep-18 12:34 43.566514 -116.222503 116 2880ft 19kts
26-Sep-18 12:35 43.567223 -116.220650 23 2880ft 0kts

Navigation Log

Ident Type
Flight plan parsing failed, navigation log unavailable